createdAt,value
2016-11-29T00:01:53.300Z,-0.4
2016-11-29T00:02:54.746Z,-0.4
2016-11-29T00:03:56.181Z,-0.5
2016-11-29T00:04:57.624Z,-0.5
2016-11-29T00:05:59.063Z,-0.5
2016-11-29T00:07:00.504Z,-0.5
2016-11-29T00:08:01.971Z,-0.5
2016-11-29T00:09:02.901Z,-0.5
2016-11-29T00:10:04.342Z,-0.5
2016-11-29T00:11:05.781Z,-0.5
2016-11-29T00:12:07.218Z,-0.5
2016-11-29T00:13:08.652Z,-0.5
2016-11-29T00:14:10.089Z,-0.5
2016-11-29T00:16:12.924Z,-0.5
2016-11-29T00:17:14.355Z,-0.5
2016-11-29T00:18:15.795Z,-0.5
2016-11-29T00:19:16.734Z,-0.5
2016-11-29T00:20:18.249Z,-0.6
2016-11-29T00:21:19.678Z,-0.6
2016-11-29T00:22:21.113Z,-0.6
2016-11-29T00:23:22.548Z,-0.6
2016-11-29T00:24:23.989Z,-0.6
2016-11-29T00:25:25.428Z,-0.6
2016-11-29T00:27:28.261Z,-0.6
2016-11-29T00:28:29.193Z,-0.6
2016-11-29T00:29:30.763Z,-0.6
2016-11-29T00:30:32.200Z,-0.7
2016-11-29T00:31:33.639Z,-0.6
2016-11-29T00:33:36.481Z,-0.6
2016-11-29T00:34:37.917Z,-0.7
2016-11-29T00:35:38.852Z,-0.7
2016-11-29T00:36:40.289Z,-0.7
2016-11-29T00:37:41.722Z,-0.7
2016-11-29T00:38:43.160Z,-0.7
2016-11-29T00:39:44.730Z,-0.7
2016-11-29T00:41:47.566Z,-0.7
2016-11-29T00:42:49.011Z,-0.7
2016-11-29T00:43:49.940Z,-0.7
2016-11-29T00:44:51.375Z,-0.8
2016-11-29T00:45:52.807Z,-0.8
2016-11-29T00:46:54.241Z,-0.8
2016-11-29T00:47:55.677Z,-0.8
2016-11-29T00:48:57.116Z,-0.8
2016-11-29T00:49:58.555Z,-0.8
2016-11-29T00:50:59.996Z,-0.8
2016-11-29T00:52:00.932Z,-0.8
2016-11-29T00:53:02.371Z,-0.8
2016-11-29T00:54:03.803Z,-0.8
2016-11-29T00:55:05.241Z,-0.8
2016-11-29T00:56:06.687Z,-0.8
2016-11-29T00:57:08.124Z,-0.9
2016-11-29T00:58:09.558Z,-0.8
2016-11-29T00:59:10.992Z,-0.8
2016-11-29T01:00:12.422Z,-0.9
2016-11-29T01:01:13.354Z,-0.9
2016-11-29T01:02:14.786Z,-0.9
2016-11-29T01:03:16.221Z,-0.9
2016-11-29T01:04:17.652Z,-0.9
2016-11-29T01:05:19.085Z,-0.9
2016-11-29T01:06:20.526Z,-0.9
2016-11-29T01:07:21.962Z,-0.9
2016-11-29T01:08:23.399Z,-0.9
2016-11-29T01:09:24.832Z,-0.9
2016-11-29T01:10:25.763Z,-0.9
2016-11-29T01:11:27.199Z,-0.9
2016-11-29T01:12:28.631Z,-0.9
2016-11-29T01:13:30.057Z,-0.9
2016-11-29T01:14:31.494Z,-0.9
2016-11-29T01:15:32.927Z,-0.9
2016-11-29T01:16:34.364Z,-1
2016-11-29T01:17:35.797Z,-1
2016-11-29T01:18:37.234Z,-1
2016-11-29T01:19:38.166Z,-1
2016-11-29T01:20:39.601Z,-1
2016-11-29T01:21:41.037Z,-1
2016-11-29T01:22:42.472Z,-1
2016-11-29T01:23:43.906Z,-1
2016-11-29T01:24:45.338Z,-1
2016-11-29T01:25:46.775Z,-1
2016-11-29T01:26:48.208Z,-1
2016-11-29T01:27:49.650Z,-1
2016-11-29T01:28:50.581Z,-1
2016-11-29T01:29:52.013Z,-1
2016-11-29T01:30:53.455Z,-1
2016-11-29T01:31:54.888Z,-1
2016-11-29T01:32:56.323Z,-1
2016-11-29T01:33:57.758Z,-1.1
2016-11-29T01:34:59.203Z,-1.1
2016-11-29T01:36:00.641Z,-1.1
2016-11-29T01:37:01.714Z,-1.1
2016-11-29T01:38:03.116Z,-1.1
2016-11-29T01:39:04.567Z,-1.1
2016-11-29T01:42:08.803Z,-1.1
2016-11-29T01:43:10.244Z,-1.1
2016-11-29T01:44:11.177Z,-1.1
2016-11-29T01:45:12.620Z,-1.1
2016-11-29T01:46:14.059Z,-1.1
2016-11-29T01:47:15.523Z,-1.1
2016-11-29T01:48:16.963Z,-1.1
2016-11-29T01:49:18.394Z,-1.1
2016-11-29T01:50:19.829Z,-1.1
2016-11-29T01:52:22.159Z,-1.1
2016-11-29T01:53:23.589Z,-1.1
2016-11-29T01:54:25.021Z,-1.2
2016-11-29T01:55:26.462Z,-1.2
2016-11-29T01:56:27.899Z,-1.2
2016-11-29T01:57:29.343Z,-1.2
2016-11-29T01:58:30.914Z,-1.2
2016-11-29T01:59:31.855Z,-1.2
2016-11-29T02:00:33.321Z,-1.2
2016-11-29T02:01:34.760Z,-1.2
2016-11-29T02:02:36.193Z,-1.2
2016-11-29T02:03:37.629Z,-1.2
2016-11-29T02:04:39.065Z,-1.2
2016-11-29T02:05:40.001Z,-1.2
2016-11-29T02:06:41.430Z,-1.2
2016-11-29T02:07:42.865Z,-1.2
2016-11-29T02:08:44.296Z,-1.2
2016-11-29T02:09:45.728Z,-1.2
2016-11-29T02:10:47.187Z,-1.2
2016-11-29T02:11:48.616Z,-1.2
2016-11-29T02:12:50.053Z,-1.2
2016-11-29T02:13:50.983Z,-1.2
2016-11-29T02:14:52.421Z,-1.3
2016-11-29T02:15:53.852Z,-1.3
2016-11-29T02:16:55.288Z,-1.3
2016-11-29T02:17:56.727Z,-1.3
2016-11-29T02:18:58.166Z,-1.3
2016-11-29T02:19:59.602Z,-1.3
2016-11-29T02:22:01.947Z,-1.3
2016-11-29T02:23:03.381Z,-1.3
2016-11-29T02:24:04.810Z,-1.3
2016-11-29T02:25:06.248Z,-1.3
2016-11-29T02:26:07.724Z,-1.3
2016-11-29T02:27:09.162Z,-1.3
2016-11-29T02:28:10.598Z,-1.3
2016-11-29T02:29:11.523Z,-1.3
2016-11-29T02:30:12.958Z,-1.4
2016-11-29T02:31:14.392Z,-1.3
2016-11-29T02:33:17.228Z,-1.3
2016-11-29T02:34:18.660Z,-1.4
2016-11-29T02:35:20.097Z,-1.4
2016-11-29T02:36:21.531Z,-1.4
2016-11-29T02:37:22.461Z,-1.4
2016-11-29T02:38:23.895Z,-1.4
2016-11-29T02:39:25.328Z,-1.4
2016-11-29T02:40:26.770Z,-1.4
2016-11-29T02:41:28.207Z,-1.3
2016-11-29T02:42:29.642Z,-1.3
2016-11-29T02:43:31.076Z,-1.3
2016-11-29T02:44:32.516Z,-1.3
2016-11-29T02:45:33.449Z,-1.3
2016-11-29T02:46:34.889Z,-1.3
2016-11-29T02:47:36.327Z,-1.3
2016-11-29T02:48:37.764Z,-1.3
2016-11-29T02:49:39.199Z,-1.3
2016-11-29T02:50:40.632Z,-1.3
2016-11-29T02:51:42.065Z,-1.3
2016-11-29T02:52:42.995Z,-1.3
2016-11-29T02:53:44.434Z,-1.3
2016-11-29T02:54:46.007Z,-1.3
2016-11-29T02:55:47.440Z,-1.4
2016-11-29T02:56:48.881Z,-1.3
2016-11-29T02:57:49.812Z,-1.3
2016-11-29T02:58:51.244Z,-1.3
2016-11-29T02:59:52.682Z,-1.4
2016-11-29T03:00:54.114Z,-1.3
2016-11-29T03:02:57.095Z,-1.4
2016-11-29T03:03:58.025Z,-1.4
2016-11-29T03:04:59.477Z,-1.4
2016-11-29T03:06:00.911Z,-1.4
2016-11-29T03:07:02.350Z,-1.4
2016-11-29T03:09:05.191Z,-1.4
2016-11-29T03:10:06.625Z,-1.4
2016-11-29T03:11:07.560Z,-1.4
2016-11-29T03:12:08.997Z,-1.4
2016-11-29T03:14:11.831Z,-1.4
2016-11-29T03:15:13.262Z,-1.5
2016-11-29T03:16:14.694Z,-1.5
2016-11-29T03:18:17.538Z,-1.5
2016-11-29T03:19:18.464Z,-1.5
2016-11-29T03:20:19.900Z,-1.4
2016-11-29T03:21:21.339Z,-1.4
2016-11-29T03:22:22.774Z,-1.4
2016-11-29T03:23:24.202Z,-1.3
2016-11-29T03:24:25.642Z,-1.3
2016-11-29T03:25:27.073Z,-1.3
2016-11-29T03:26:28.006Z,-1.2
2016-11-29T03:27:29.446Z,-1.2
2016-11-29T03:28:30.876Z,-1.2
2016-11-29T03:29:32.305Z,-1.2
2016-11-29T03:30:33.734Z,-1.2
2016-11-29T03:31:35.158Z,-1.2
2016-11-29T03:32:36.590Z,-1.2
2016-11-29T03:33:38.022Z,-1.2
2016-11-29T03:34:38.956Z,-1.2
2016-11-29T03:35:40.389Z,-1.2
2016-11-29T03:36:41.826Z,-1.2
2016-11-29T03:37:43.261Z,-1.2
2016-11-29T03:38:44.691Z,-1.2
2016-11-29T03:39:46.129Z,-1.3
2016-11-29T03:40:47.560Z,-1.3
2016-11-29T03:43:51.288Z,-1.3
2016-11-29T03:44:52.720Z,-1.3
2016-11-29T03:45:54.147Z,-1.3
2016-11-29T03:46:55.574Z,-1.4
2016-11-29T03:47:57.007Z,-1.4
2016-11-29T03:48:58.118Z,-1.4
2016-11-29T03:49:59.551Z,-1.4
2016-11-29T03:51:01.121Z,-1.4
2016-11-29T03:52:02.694Z,-1.4
2016-11-29T03:53:03.619Z,-1.4
2016-11-29T03:56:07.858Z,-1.5
2016-11-29T03:57:09.291Z,-1.5
2016-11-29T03:58:10.724Z,-1.5
2016-11-29T03:59:11.661Z,-1.5
2016-11-29T04:00:13.094Z,-1.5
2016-11-29T04:01:14.529Z,-1.5
2016-11-29T04:02:15.962Z,-1.5
2016-11-29T04:03:17.401Z,-1.6
2016-11-29T04:04:18.835Z,-1.6
2016-11-29T04:05:20.267Z,-1.6
2016-11-29T04:06:21.191Z,-1.6
2016-11-29T04:07:22.625Z,-1.6
2016-11-29T04:08:24.057Z,-1.6
2016-11-29T04:09:25.486Z,-1.6
2016-11-29T04:10:26.919Z,-1.6
2016-11-29T04:11:28.357Z,-1.6
2016-11-29T04:12:29.795Z,-1.6
2016-11-29T04:13:30.724Z,-1.6
2016-11-29T04:14:32.156Z,-1.6
2016-11-29T04:15:33.591Z,-1.6
2016-11-29T04:16:35.017Z,-1.6
2016-11-29T04:17:36.455Z,-1.6
2016-11-29T04:19:39.286Z,-1.6
2016-11-29T04:20:40.723Z,-1.6
2016-11-29T04:21:41.648Z,-1.6
2016-11-29T04:22:43.080Z,-1.6
2016-11-29T04:23:44.510Z,-1.6
2016-11-29T04:25:47.345Z,-1.6
2016-11-29T04:26:48.777Z,-1.7
2016-11-29T04:27:50.211Z,-1.7
2016-11-29T04:28:51.142Z,-1.7
2016-11-29T04:29:52.580Z,-1.7
2016-11-29T04:30:54.010Z,-1.7
2016-11-29T04:31:55.441Z,-1.7
2016-11-29T04:32:56.872Z,-1.7
2016-11-29T04:33:58.300Z,-1.7
2016-11-29T04:36:00.636Z,-1.7
2016-11-29T04:37:02.074Z,-1.7
2016-11-29T04:38:03.513Z,-1.7
2016-11-29T04:39:04.951Z,-1.7
2016-11-29T04:40:06.388Z,-1.7
2016-11-29T04:41:07.821Z,-1.7
2016-11-29T04:42:09.253Z,-1.7
2016-11-29T04:43:10.186Z,-1.7
2016-11-29T04:44:11.621Z,-1.7
2016-11-29T04:45:13.049Z,-1.7
2016-11-29T04:46:14.481Z,-1.7
2016-11-29T04:47:15.913Z,-1.7
2016-11-29T04:48:17.345Z,-1.7
2016-11-29T04:49:18.308Z,-1.7
2016-11-29T04:50:19.739Z,-1.7
2016-11-29T04:51:21.171Z,-1.7
2016-11-29T04:53:24.001Z,-1.7
2016-11-29T04:55:26.822Z,-1.7
2016-11-29T04:56:28.250Z,-1.8
2016-11-29T04:57:29.175Z,-1.8
2016-11-29T04:58:30.607Z,-1.8
2016-11-29T04:59:32.037Z,-1.8
2016-11-29T05:00:33.468Z,-1.8
2016-11-29T05:01:34.902Z,-1.8
2016-11-29T05:02:36.468Z,-1.8
2016-11-29T05:03:37.404Z,-1.8
2016-11-29T05:04:38.833Z,-1.8
2016-11-29T05:05:40.267Z,-1.8
2016-11-29T05:06:41.700Z,-1.8
2016-11-29T05:07:43.135Z,-1.8
2016-11-29T05:08:44.569Z,-1.8
2016-11-29T05:09:45.498Z,-1.8
2016-11-29T05:10:46.934Z,-1.8
2016-11-29T05:11:48.364Z,-1.8
2016-11-29T05:12:49.804Z,-1.8
2016-11-29T05:13:51.240Z,-1.8
2016-11-29T05:14:52.700Z,-1.8
2016-11-29T05:15:53.626Z,-1.8
2016-11-29T05:16:55.056Z,-1.8
2016-11-29T05:17:56.489Z,-1.8
2016-11-29T05:18:57.920Z,-1.8
2016-11-29T05:21:00.751Z,-1.8
2016-11-29T05:22:02.183Z,-1.8
2016-11-29T05:23:03.111Z,-1.8
2016-11-29T05:24:04.544Z,-1.8
2016-11-29T05:25:05.981Z,-1.8
2016-11-29T05:26:07.418Z,-1.8
2016-11-29T05:27:08.855Z,-1.8
2016-11-29T05:28:10.288Z,-1.8
2016-11-29T05:29:11.720Z,-1.8
2016-11-29T05:30:12.653Z,-1.8
2016-11-29T05:31:14.082Z,-1.8
2016-11-29T05:32:15.512Z,-1.8
2016-11-29T05:33:16.946Z,-1.8
2016-11-29T05:34:18.385Z,-1.8
2016-11-29T05:35:19.821Z,-1.8
2016-11-29T05:36:21.010Z,-1.8
2016-11-29T05:38:23.845Z,-1.9
2016-11-29T05:40:26.179Z,-1.9
2016-11-29T05:41:27.609Z,-1.9
2016-11-29T05:42:29.045Z,-1.9
2016-11-29T05:43:30.480Z,-1.9
2016-11-29T05:44:31.931Z,-1.9
2016-11-29T05:45:33.373Z,-1.9
2016-11-29T05:46:34.299Z,-1.9
2016-11-29T05:47:35.726Z,-1.9
2016-11-29T05:48:37.154Z,-2
2016-11-29T05:49:38.585Z,-2
2016-11-29T05:50:40.016Z,-2
2016-11-29T05:51:41.451Z,-2
2016-11-29T05:52:42.911Z,-2
2016-11-29T05:53:43.848Z,-2
2016-11-29T05:54:45.417Z,-2
2016-11-29T05:55:46.852Z,-2
2016-11-29T05:56:48.281Z,-2
2016-11-29T05:57:49.210Z,-2
2016-11-29T05:58:50.646Z,-2
2016-11-29T05:59:52.085Z,-2
2016-11-29T06:00:53.515Z,-2
2016-11-29T06:01:54.954Z,-2
2016-11-29T06:02:56.386Z,-2
2016-11-29T06:03:57.315Z,-2
2016-11-29T06:04:58.769Z,-2
2016-11-29T06:06:02.926Z,-2
2016-11-29T06:07:01.844Z,-2
2016-11-29T06:08:02.775Z,-2
2016-11-29T06:09:04.096Z,-2
2016-11-29T06:10:05.485Z,-2
2016-11-29T06:11:06.840Z,-2
2016-11-29T06:12:08.306Z,-2
2016-11-29T06:13:09.581Z,-2
2016-11-29T06:14:11.078Z,-2
2016-11-29T06:15:12.211Z,-2
2016-11-29T06:17:14.986Z,-2
2016-11-29T06:18:16.520Z,-2
2016-11-29T06:19:17.679Z,-2
2016-11-29T06:20:18.983Z,-2
2016-11-29T06:21:20.500Z,-2
2016-11-29T06:22:21.787Z,-2
2016-11-29T06:23:23.348Z,-2
2016-11-29T06:24:24.608Z,-2
2016-11-29T06:25:25.784Z,-2
2016-11-29T06:26:27.445Z,-2
2016-11-29T06:27:28.874Z,-2
2016-11-29T06:28:29.804Z,-2
2016-11-29T06:29:31.242Z,-2
2016-11-29T06:30:32.806Z,-2
2016-11-29T06:31:34.236Z,-2
2016-11-29T06:32:35.671Z,-2
2016-11-29T06:33:36.598Z,-2
2016-11-29T06:35:39.432Z,-2
2016-11-29T06:36:40.867Z,-2
2016-11-29T06:37:42.301Z,-2.1
2016-11-29T06:38:43.727Z,-2.1
2016-11-29T06:39:44.654Z,-2
2016-11-29T06:40:46.090Z,-2.1
2016-11-29T06:41:47.522Z,-2.1
2016-11-29T06:42:48.953Z,-2.1
2016-11-29T06:43:50.395Z,-2.1
2016-11-29T06:44:51.821Z,-2.1
2016-11-29T06:45:52.749Z,-2.1
2016-11-29T06:46:54.184Z,-2.1
2016-11-29T06:47:55.617Z,-2.1
2016-11-29T06:48:57.053Z,-2.1
2016-11-29T06:50:59.888Z,-2.1
2016-11-29T06:52:01.319Z,-2.1
2016-11-29T06:53:02.247Z,-2.1
2016-11-29T06:54:03.679Z,-2.1
2016-11-29T06:55:05.113Z,-2.1
2016-11-29T06:56:06.545Z,-2.1
2016-11-29T06:57:07.980Z,-2.1
2016-11-29T06:58:09.412Z,-2.1
2016-11-29T06:59:10.339Z,-2.1
2016-11-29T07:00:11.775Z,-2.1
2016-11-29T07:01:13.203Z,-2.1
2016-11-29T07:02:14.634Z,-2.1
2016-11-29T07:03:16.071Z,-2.1
2016-11-29T07:04:17.635Z,-2.1
2016-11-29T07:06:19.964Z,-2.1
2016-11-29T07:07:21.392Z,-2.1
2016-11-29T07:09:24.229Z,-2.1
2016-11-29T07:10:25.163Z,-2.1
2016-11-29T07:11:26.599Z,-2.1
2016-11-29T07:12:28.031Z,-2.1
2016-11-29T07:13:29.457Z,-2.1
2016-11-29T07:14:30.902Z,-2.1
2016-11-29T07:15:32.337Z,-2.1
2016-11-29T07:17:34.673Z,-2.1
2016-11-29T07:18:36.111Z,-2.1
2016-11-29T07:19:37.541Z,-2.1
2016-11-29T07:20:38.976Z,-2.1
2016-11-29T07:21:40.410Z,-2
2016-11-29T07:22:41.338Z,-2
2016-11-29T07:23:42.774Z,-2
2016-11-29T07:25:45.560Z,-2
2016-11-29T07:26:46.989Z,-2
2016-11-29T07:27:48.416Z,-2
2016-11-29T07:28:49.857Z,-2
2016-11-29T07:29:51.288Z,-2
2016-11-29T07:30:52.214Z,-2
2016-11-29T07:31:53.649Z,-2
2016-11-29T07:32:55.086Z,-2
2016-11-29T07:33:56.524Z,-2
2016-11-29T07:34:57.956Z,-2
2016-11-29T07:35:59.389Z,-1.9
2016-11-29T07:37:00.317Z,-1.9
2016-11-29T07:38:02.207Z,-1.9
2016-11-29T07:39:03.131Z,-1.9
2016-11-29T07:40:04.845Z,-1.9
2016-11-29T07:41:05.771Z,-1.9
2016-11-29T07:42:07.207Z,-1.9
2016-11-29T07:44:10.034Z,-1.9
2016-11-29T07:45:11.466Z,-1.8
2016-11-29T07:47:13.799Z,-1.8
2016-11-29T07:48:15.235Z,-1.8
2016-11-29T07:49:16.666Z,-1.7
2016-11-29T07:52:20.898Z,-1.7
2016-11-29T07:53:22.335Z,-1.7
2016-11-29T07:54:23.262Z,-1.6
2016-11-29T07:55:24.692Z,-1.6
2016-11-29T07:56:26.123Z,-1.6
2016-11-29T07:57:27.552Z,-1.6
2016-11-29T07:59:30.388Z,-1.5
2016-11-29T08:00:31.812Z,-1.5
2016-11-29T08:01:33.253Z,-1.5
2016-11-29T08:02:34.181Z,-1.5
2016-11-29T08:03:35.617Z,-1.4
2016-11-29T08:04:37.048Z,-1.4
2016-11-29T08:06:39.883Z,-1.4
2016-11-29T08:07:41.312Z,-1.4
2016-11-29T08:08:42.746Z,-1.4
2016-11-29T08:09:43.679Z,-1.4
2016-11-29T08:10:45.141Z,-1.3
2016-11-29T08:11:46.578Z,-1.3
2016-11-29T08:12:48.013Z,-1.3
2016-11-29T08:13:49.448Z,-1.3
2016-11-29T08:14:50.883Z,-1.3
2016-11-29T08:15:51.956Z,-1.3
2016-11-29T08:17:54.790Z,-1.3
2016-11-29T08:18:56.217Z,-1.3
2016-11-29T08:19:57.654Z,-1.3
2016-11-29T08:20:59.087Z,-1.3
2016-11-29T08:22:00.014Z,-1.3
2016-11-29T08:23:01.447Z,-1.4
2016-11-29T08:24:02.877Z,-1.4
2016-11-29T08:25:04.361Z,-1.4
2016-11-29T08:26:05.791Z,-1.3
2016-11-29T08:27:07.228Z,-1.4
2016-11-29T08:29:09.791Z,-1.4
2016-11-29T08:30:11.228Z,-1.4
2016-11-29T08:31:12.658Z,-1.4
2016-11-29T08:32:14.092Z,-1.4
2016-11-29T08:33:15.016Z,-1.4
2016-11-29T08:34:16.496Z,-1.4
2016-11-29T08:35:17.926Z,-1.4
2016-11-29T08:36:19.368Z,-1.4
2016-11-29T08:37:20.799Z,-1.4
2016-11-29T08:38:22.234Z,-1.4
2016-11-29T08:40:24.558Z,-1.4
2016-11-29T08:41:25.993Z,-1.4
2016-11-29T08:42:27.423Z,-1.4
2016-11-29T08:43:28.858Z,-1.4
2016-11-29T08:44:30.294Z,-1.4
2016-11-29T08:45:31.728Z,-1.4
2016-11-29T08:46:33.158Z,-1.4
2016-11-29T08:47:34.107Z,-1.4
2016-11-29T08:48:35.540Z,-1.4
2016-11-29T08:49:36.975Z,-1.4
2016-11-29T08:50:38.413Z,-1.4
2016-11-29T08:51:39.851Z,-1.4
2016-11-29T08:52:41.279Z,-1.4
2016-11-29T08:53:42.720Z,-1.4
2016-11-29T08:54:43.651Z,-1.4
2016-11-29T08:55:45.081Z,-1.4
2016-11-29T08:56:46.580Z,-1.4
2016-11-29T08:57:48.014Z,-1.4
2016-11-29T08:58:49.448Z,-1.4
2016-11-29T08:59:50.877Z,-1.4
2016-11-29T09:00:51.804Z,-1.4
2016-11-29T09:01:53.237Z,-1.4
2016-11-29T09:02:54.798Z,-1.4
2016-11-29T09:03:56.233Z,-1.4
2016-11-29T09:04:57.665Z,-1.4
2016-11-29T09:05:59.091Z,-1.4
2016-11-29T09:08:01.425Z,-1.4
2016-11-29T09:09:02.859Z,-1.4
2016-11-29T09:10:04.291Z,-1.4
2016-11-29T09:11:05.751Z,-1.4
2016-11-29T09:12:07.188Z,-1.4
2016-11-29T09:13:08.621Z,-1.4
2016-11-29T09:14:09.551Z,-1.4
2016-11-29T09:15:10.993Z,-1.4
2016-11-29T09:16:12.432Z,-1.4
2016-11-29T09:17:13.865Z,-1.4
2016-11-29T09:18:15.297Z,-1.4
2016-11-29T09:20:18.136Z,-1.4
2016-11-29T09:21:19.066Z,-1.4
2016-11-29T09:22:20.500Z,-1.4
2016-11-29T09:23:21.932Z,-1.4
2016-11-29T09:24:23.369Z,-1.3
2016-11-29T09:25:24.801Z,-1.3
2016-11-29T09:27:27.635Z,-1.3
2016-11-29T09:28:29.067Z,-1.3
2016-11-29T09:29:29.993Z,-1.3
2016-11-29T09:30:31.425Z,-1.3
2016-11-29T09:31:32.866Z,-1.3
2016-11-29T09:32:34.309Z,-1.3
2016-11-29T09:33:35.744Z,-1.3
2016-11-29T09:34:37.171Z,-1.3
2016-11-29T09:35:38.602Z,-1.3
2016-11-29T09:36:39.540Z,-1.3
2016-11-29T09:37:40.975Z,-1.3
2016-11-29T09:38:42.405Z,-1.3
2016-11-29T09:39:43.842Z,-1.3
2016-11-29T09:40:45.269Z,-1.3
2016-11-29T09:43:49.498Z,-1.3
2016-11-29T09:44:50.932Z,-1.3
2016-11-29T09:45:51.868Z,-1.2
2016-11-29T09:46:53.309Z,-1.2
2016-11-29T09:47:54.738Z,-1.2
2016-11-29T09:48:56.172Z,-1.2
2016-11-29T09:49:57.607Z,-1.2
2016-11-29T09:50:59.043Z,-1.2
2016-11-29T09:52:00.475Z,-1.2
2016-11-29T09:53:01.405Z,-1.2
2016-11-29T09:55:04.240Z,-1.2
2016-11-29T09:56:05.675Z,-1.2
2016-11-29T09:57:07.105Z,-1.2
2016-11-29T09:58:08.544Z,-1.2
2016-11-29T09:59:09.976Z,-1.2
2016-11-29T10:00:11.539Z,-1.2
2016-11-29T10:01:12.468Z,-1.2
2016-11-29T10:02:13.899Z,-1.2
2016-11-29T10:03:15.326Z,-1.2
2016-11-29T10:04:16.755Z,-1.2
2016-11-29T10:05:18.414Z,-1.1
2016-11-29T10:06:19.281Z,-1.1
2016-11-29T10:07:20.718Z,-1.1
2016-11-29T10:08:22.153Z,-1.1
2016-11-29T10:09:23.584Z,-1.1
2016-11-29T10:10:25.014Z,-1.1
2016-11-29T10:11:26.445Z,-1.1
2016-11-29T10:12:27.435Z,-1.1
2016-11-29T10:13:28.861Z,-1.1
2016-11-29T10:14:30.293Z,-1.1
2016-11-29T10:15:31.721Z,-1.1
2016-11-29T10:16:33.155Z,-1.1
2016-11-29T10:17:34.582Z,-1.1
2016-11-29T10:18:36.018Z,-1.1
2016-11-29T10:19:36.944Z,-1.1
2016-11-29T10:20:38.372Z,-1.1
2016-11-29T10:21:39.805Z,-1.1
2016-11-29T10:22:41.388Z,-1.1
2016-11-29T10:24:44.227Z,-1
2016-11-29T10:25:45.168Z,-1
2016-11-29T10:26:46.608Z,-1
2016-11-29T10:27:48.036Z,-1
2016-11-29T10:28:49.473Z,-1
2016-11-29T10:29:50.909Z,-1
2016-11-29T10:30:52.342Z,-1
2016-11-29T10:31:54.470Z,-1
2016-11-29T10:32:54.898Z,-1
2016-11-29T10:33:56.341Z,-1
2016-11-29T10:35:59.166Z,-1
2016-11-29T10:37:00.601Z,-1
2016-11-29T10:38:02.030Z,-1
2016-11-29T10:39:02.956Z,-1
2016-11-29T10:40:04.416Z,-0.9
2016-11-29T10:41:05.848Z,-0.9
2016-11-29T10:42:07.286Z,-0.9
2016-11-29T10:43:08.746Z,-0.9
2016-11-29T10:44:10.180Z,-0.9
2016-11-29T10:45:11.622Z,-0.9
2016-11-29T10:46:12.552Z,-0.9
2016-11-29T10:47:13.984Z,-0.9
2016-11-29T10:48:15.418Z,-0.9
2016-11-29T10:49:16.855Z,-0.9
2016-11-29T10:51:19.689Z,-0.9
2016-11-29T10:52:21.127Z,-0.9
2016-11-29T10:53:22.557Z,-0.9
2016-11-29T10:56:26.293Z,-0.9
2016-11-29T10:57:27.724Z,-0.8
2016-11-29T10:58:29.155Z,-0.8
2016-11-29T10:59:30.590Z,-0.8
2016-11-29T11:00:32.029Z,-0.8
2016-11-29T11:01:33.460Z,-0.8
2016-11-29T11:02:34.897Z,-0.8
2016-11-29T11:03:35.961Z,-0.8
2016-11-29T11:04:37.390Z,-0.8
2016-11-29T11:05:38.827Z,-0.8
2016-11-29T11:06:40.253Z,-0.8
2016-11-29T11:07:41.686Z,-0.8
2016-11-29T11:08:43.123Z,-0.8
2016-11-29T11:09:44.553Z,-0.7
2016-11-29T11:10:45.979Z,-0.7
2016-11-29T11:11:46.906Z,-0.7
2016-11-29T11:12:48.338Z,-0.7
2016-11-29T11:13:49.778Z,-0.7
2016-11-29T11:14:51.215Z,-0.7
2016-11-29T11:15:52.649Z,-0.7
2016-11-29T11:16:54.079Z,-0.7
2016-11-29T11:17:55.509Z,-0.7
2016-11-29T11:18:56.939Z,-0.7
2016-11-29T11:19:58.371Z,-0.7
2016-11-29T11:20:59.300Z,-0.7
2016-11-29T11:22:00.732Z,-0.7
2016-11-29T11:23:02.161Z,-0.7
2016-11-29T11:24:03.593Z,-0.7
2016-11-29T11:25:05.024Z,-0.7
2016-11-29T11:26:06.461Z,-0.7
2016-11-29T11:27:07.962Z,-0.7
2016-11-29T11:28:09.391Z,-0.6
2016-11-29T11:29:10.321Z,-0.6
2016-11-29T11:30:11.747Z,-0.6
2016-11-29T11:31:13.182Z,-0.6
2016-11-29T11:32:14.616Z,-0.6
2016-11-29T11:33:16.047Z,-0.6
2016-11-29T11:35:18.882Z,-0.6
2016-11-29T11:36:20.312Z,-0.6
2016-11-29T11:37:21.745Z,-0.6
2016-11-29T11:38:23.178Z,-0.6
2016-11-29T11:39:24.119Z,-0.6
2016-11-29T11:40:25.557Z,-0.6
2016-11-29T11:41:26.985Z,-0.6
2016-11-29T11:42:28.415Z,-0.6
2016-11-29T11:43:29.847Z,-0.6
2016-11-29T11:44:31.294Z,-0.6
2016-11-29T11:45:32.721Z,-0.6
2016-11-29T11:46:34.158Z,-0.6
2016-11-29T11:47:35.091Z,-0.6
2016-11-29T11:48:36.549Z,-0.5
2016-11-29T11:49:37.979Z,-0.5
2016-11-29T11:50:39.606Z,-0.5
2016-11-29T11:51:41.042Z,-0.5
2016-11-29T11:52:42.475Z,-0.5
2016-11-29T11:53:43.406Z,-0.5
2016-11-29T11:54:44.839Z,-0.5
2016-11-29T11:55:46.265Z,-0.5
2016-11-29T11:56:47.720Z,-0.5
2016-11-29T11:57:49.153Z,-0.5
2016-11-29T11:58:50.611Z,-0.5
2016-11-29T11:59:52.042Z,-0.5
2016-11-29T12:00:53.475Z,-0.5
2016-11-29T12:01:54.906Z,-0.5
2016-11-29T12:02:55.834Z,-0.5
2016-11-29T12:04:58.663Z,-0.5
2016-11-29T12:06:00.092Z,-0.5
2016-11-29T12:07:01.559Z,-0.5
2016-11-29T12:08:03.129Z,-0.5
2016-11-29T12:09:04.561Z,-0.4
2016-11-29T12:10:05.490Z,-0.5
2016-11-29T12:11:06.925Z,-0.5
2016-11-29T12:12:08.358Z,-0.5
2016-11-29T12:13:09.795Z,-0.5
2016-11-29T12:14:11.228Z,-0.4
2016-11-29T12:15:12.658Z,-0.4
2016-11-29T12:16:14.103Z,-0.4
2016-11-29T12:17:15.542Z,-0.4
2016-11-29T12:19:18.382Z,-0.4
2016-11-29T12:20:19.305Z,-0.4
2016-11-29T12:21:20.736Z,-0.4
2016-11-29T12:22:22.175Z,-0.4
2016-11-29T12:23:23.607Z,-0.4
2016-11-29T12:24:25.039Z,-0.4
2016-11-29T12:25:26.473Z,-0.4
2016-11-29T12:26:27.910Z,-0.4
2016-11-29T12:27:29.342Z,-0.3
2016-11-29T12:28:30.774Z,-0.3
2016-11-29T12:29:32.203Z,-0.3
2016-11-29T12:30:33.135Z,-0.3
2016-11-29T12:31:34.566Z,-0.3
2016-11-29T12:32:36.003Z,-0.3
2016-11-29T12:34:38.831Z,-0.3
2016-11-29T12:35:40.268Z,-0.3
2016-11-29T12:36:41.705Z,-0.3
2016-11-29T12:37:43.147Z,-0.3
2016-11-29T12:38:44.584Z,-0.3
2016-11-29T12:39:46.045Z,-0.3
2016-11-29T12:40:46.978Z,-0.3
2016-11-29T12:41:48.430Z,-0.3
2016-11-29T12:42:49.863Z,-0.3
2016-11-29T12:43:51.304Z,-0.3
2016-11-29T12:44:52.735Z,-0.3
2016-11-29T12:45:54.174Z,-0.3
2016-11-29T12:46:55.611Z,-0.3
2016-11-29T12:47:57.048Z,-0.3
2016-11-29T12:48:58.487Z,-0.3
2016-11-29T12:49:59.920Z,-0.3
2016-11-29T12:51:00.847Z,-0.3
2016-11-29T12:53:03.683Z,-0.3
2016-11-29T12:54:05.108Z,-0.3
2016-11-29T12:55:06.546Z,-0.3
2016-11-29T12:56:07.985Z,-0.3
2016-11-29T12:57:09.420Z,-0.3
2016-11-29T12:58:10.852Z,-0.3
2016-11-29T12:59:12.279Z,-0.3
2016-11-29T13:00:13.712Z,-0.3
2016-11-29T13:01:15.143Z,-0.3
2016-11-29T13:02:16.070Z,-0.3
2016-11-29T13:03:17.501Z,-0.3
2016-11-29T13:05:20.332Z,-0.2
2016-11-29T13:06:21.764Z,-0.3
2016-11-29T13:07:23.200Z,-0.2
2016-11-29T13:08:24.635Z,-0.2
2016-11-29T13:09:26.071Z,-0.2
2016-11-29T13:11:28.896Z,-0.2
2016-11-29T13:12:30.329Z,-0.2
2016-11-29T13:13:31.766Z,-0.2
2016-11-29T13:14:33.197Z,-0.2
2016-11-29T13:15:34.130Z,-0.2
2016-11-29T13:16:35.566Z,-0.2
2016-11-29T13:17:36.993Z,-0.2
2016-11-29T13:18:38.425Z,-0.2
2016-11-29T13:19:39.854Z,-0.2
2016-11-29T13:20:41.283Z,-0.2
2016-11-29T13:21:42.718Z,-0.2
2016-11-29T13:22:44.150Z,-0.2
2016-11-29T13:23:45.582Z,-0.2
2016-11-29T13:24:47.021Z,-0.2
2016-11-29T13:25:48.455Z,-0.2
2016-11-29T13:26:49.389Z,-0.2
2016-11-29T13:27:50.823Z,-0.2
2016-11-29T13:28:52.250Z,-0.2
2016-11-29T13:29:53.684Z,-0.2
2016-11-29T13:30:55.147Z,-0.2
2016-11-29T13:31:56.577Z,-0.2
2016-11-29T13:32:58.010Z,-0.2
2016-11-29T13:33:59.439Z,-0.2
2016-11-29T13:35:00.871Z,-0.2
2016-11-29T13:36:02.304Z,-0.2
2016-11-29T13:37:03.235Z,-0.2
2016-11-29T13:38:04.666Z,-0.2
2016-11-29T13:39:06.242Z,-0.2
2016-11-29T13:40:07.676Z,-0.2
2016-11-29T13:41:09.108Z,-0.2
2016-11-29T13:42:10.565Z,-0.2
2016-11-29T13:43:11.995Z,-0.2
2016-11-29T13:44:13.434Z,-0.2
2016-11-29T13:45:14.364Z,-0.2
2016-11-29T13:46:15.799Z,-0.2
2016-11-29T13:47:17.235Z,-0.2
2016-11-29T13:48:18.666Z,-0.2
2016-11-29T13:49:20.101Z,-0.2
2016-11-29T13:51:22.930Z,-0.2
2016-11-29T13:52:24.498Z,-0.2
2016-11-29T13:53:25.935Z,-0.2
2016-11-29T13:54:26.872Z,-0.2
2016-11-29T13:55:28.312Z,-0.2
2016-11-29T13:56:29.747Z,-0.2
2016-11-29T13:57:31.200Z,-0.2
2016-11-29T13:58:32.637Z,-0.2
2016-11-29T13:59:34.074Z,-0.2
2016-11-29T14:00:35.512Z,-0.2
2016-11-29T14:01:36.941Z,-0.2
2016-11-29T14:02:38.373Z,-0.2
2016-11-29T14:03:39.813Z,-0.2
2016-11-29T14:04:40.746Z,-0.2
2016-11-29T14:06:43.580Z,-0.2
2016-11-29T14:07:45.012Z,-0.2
2016-11-29T14:08:46.451Z,-0.2
2016-11-29T14:09:47.883Z,-0.2
2016-11-29T14:10:49.324Z,-0.2
2016-11-29T14:11:50.757Z,-0.2
2016-11-29T14:12:52.189Z,-0.2
2016-11-29T14:13:53.621Z,-0.2
2016-11-29T14:14:55.051Z,-0.2
2016-11-29T14:15:55.984Z,-0.2
2016-11-29T14:16:57.418Z,-0.2
2016-11-29T14:17:58.854Z,-0.2
2016-11-29T14:19:00.282Z,-0.2
2016-11-29T14:20:01.723Z,-0.2
2016-11-29T14:21:03.153Z,-0.2
2016-11-29T14:22:04.589Z,-0.2
2016-11-29T14:23:06.023Z,-0.2
2016-11-29T14:24:07.461Z,-0.2
2016-11-29T14:25:08.898Z,-0.2
2016-11-29T14:26:10.327Z,-0.2
2016-11-29T14:27:11.397Z,-0.2
2016-11-29T14:28:12.830Z,-0.2
2016-11-29T14:29:14.264Z,-0.2
2016-11-29T14:30:15.700Z,-0.2
2016-11-29T14:31:17.133Z,-0.2
2016-11-29T14:32:18.569Z,-0.2
2016-11-29T14:33:20.002Z,-0.2
2016-11-29T14:34:21.432Z,-0.2
2016-11-29T14:36:23.756Z,-0.2
2016-11-29T14:37:25.200Z,-0.2
2016-11-29T14:38:26.642Z,-0.2
2016-11-29T14:39:28.071Z,-0.2
2016-11-29T14:40:29.498Z,-0.2
2016-11-29T14:41:30.924Z,-0.2
2016-11-29T14:42:32.355Z,-0.2
2016-11-29T14:43:33.794Z,-0.2
2016-11-29T14:44:35.292Z,-0.2
2016-11-29T14:45:36.223Z,-0.2
2016-11-29T14:46:37.658Z,-0.2
2016-11-29T14:47:39.095Z,-0.2